Wilsey Dupre — WDF3703 — position and weather

sailwx.info

Track history (hours):
 
Tides and Currents Weather Stations Pressure Air Temp Water Temp Dewpoint Dewpoint Depression Visibility Wind Speed Wind Dir Waves Ship Positions

Wilsey Dupre

Owner: LeBeouf Bros. Towing, LLC, Houma, LA. More information available from US FCC via Universal Licensing System.

Last reported at 2017-Nov-18 15:41 UTC. Time now 2017-Nov-21 19:07 UTC.
Position N 29°34' W 090°29'.

Length 23 m; draft 3 m.

Type: Ship. MMSI: 367443060.

Date/timePositionNaut miles runAvg speedWind from/ knotsBaromVisibWave heightAir tempDewpointWater temp
2017-Nov-18 15:41N 29°34' W 090°29'1 5.4
2017-Nov-18 15:29N 29°34' W 090°30'3 5.4
2017-Nov-18 15:00N 29°34' W 090°33'3 5.1
2017-Nov-18 14:30N 29°35' W 090°36'0 0.1
2017-Nov-18 14:00N 29°35' W 090°36'1 2.8
2017-Nov-18 13:30N 29°35' W 090°37'3 5.3
2017-Nov-18 13:00N 29°36' W 090°40'2 4.3
2017-Nov-18 12:30N 29°37' W 090°42'2 3.8
2017-Nov-18 12:00N 29°35' W 090°43'1 2.8
2017-Nov-18 11:30N 29°34' W 090°44'1 2.7
2017-Nov-18 11:00N 29°33' W 090°45'2 3.2
2017-Nov-18 10:30N 29°32' W 090°47'2 4.5
2017-Nov-18 10:00N 29°32' W 090°49'3 4.4
2017-Nov-18 09:24N 29°32' W 090°52'2 4.5
2017-Nov-18 09:00N 29°33' W 090°54'59 4.2
2017-Nov-17 18:53N 29°50' W 091°59'2 5.5
2017-Nov-17 18:29N 29°49' W 092°01'2 5.0
2017-Nov-17 18:00N 29°48' W 092°04'3 5.1
2017-Nov-17 17:30N 29°48' W 092°07'3 5.4
2017-Nov-17 17:00N 29°47' W 092°10'2 4.0
2017-Nov-17 16:30N 29°47' W 092°12'2 3.0
2017-Nov-17 16:00N 29°48' W 092°13'1 2.9
2017-Nov-17 15:30N 29°48' W 092°15'3 5.0
2017-Nov-17 15:00N 29°49' W 092°18'2 3.7
2017-Nov-17 14:30N 29°50' W 092°19'40 4.6
2017-Nov-17 05:47N 29°56' W 093°05'1 4.6
2017-Nov-17 05:29N 29°56' W 093°06'2 4.7
2017-Nov-17 05:00N 29°56' W 093°09'2 4.4
2017-Nov-17 04:30N 29°58' W 093°11'2 4.5
2017-Nov-17 04:00N 29°59' W 093°13'2 3.3
2017-Nov-17 03:30N 30°01' W 093°14'2 3.8
2017-Nov-17 03:00N 30°02' W 093°15'2 4.2
2017-Nov-17 02:30N 30°04' W 093°16'1 1.4
2017-Nov-17 02:00N 30°04' W 093°17'1 2.6
2017-Nov-17 01:30N 30°05' W 093°18'1 1.5
2017-Nov-17 01:00N 30°06' W 093°18'1 1.3
2017-Nov-17 00:30N 30°06' W 093°19'2 4.2
2017-Nov-17 00:00N 30°04' W 093°20'2 3.2
2017-Nov-16 23:30N 30°04' W 093°22'2 3.7
2017-Nov-16 23:00N 30°04' W 093°24'3 5.2
2017-Nov-16 22:30N 30°04' W 093°27'3 5.2
2017-Nov-16 22:00N 30°04' W 093°30'  
Track history (hours):
 
Tides and Currents Weather Stations Pressure Air Temp Water Temp Dewpoint Dewpoint Depression Visibility Wind Speed Wind Dir Waves Ship Positions

Wilsey Dupre

Owner: LeBeouf Bros. Towing, LLC, Houma, LA. More information available from US FCC via Universal Licensing System.

Last reported at 2017-Nov-18 15:41 UTC. Time now 2017-Nov-21 19:07 UTC.
Position N 29°34' W 090°29'.

Length 23 m; draft 3 m.

Type: Ship. MMSI: 367443060.

Date/timePositionNaut miles runAvg speedWind from/ knotsBaromVisibWave heightAir tempDewpointWater temp
2017-Nov-18 15:41N 29°34' W 090°29'1 5.4
2017-Nov-18 15:29N 29°34' W 090°30'3 5.4
2017-Nov-18 15:00N 29°34' W 090°33'3 5.1
2017-Nov-18 14:30N 29°35' W 090°36'0 0.1
2017-Nov-18 14:00N 29°35' W 090°36'1 2.8
2017-Nov-18 13:30N 29°35' W 090°37'3 5.3
2017-Nov-18 13:00N 29°36' W 090°40'2 4.3
2017-Nov-18 12:30N 29°37' W 090°42'2 3.8
2017-Nov-18 12:00N 29°35' W 090°43'1 2.8
2017-Nov-18 11:30N 29°34' W 090°44'1 2.7
2017-Nov-18 11:00N 29°33' W 090°45'2 3.2
2017-Nov-18 10:30N 29°32' W 090°47'2 4.5
2017-Nov-18 10:00N 29°32' W 090°49'3 4.4
2017-Nov-18 09:24N 29°32' W 090°52'2 4.5
2017-Nov-18 09:00N 29°33' W 090°54'59 4.2
2017-Nov-17 18:53N 29°50' W 091°59'2 5.5
2017-Nov-17 18:29N 29°49' W 092°01'2 5.0
2017-Nov-17 18:00N 29°48' W 092°04'3 5.1
2017-Nov-17 17:30N 29°48' W 092°07'3 5.4
2017-Nov-17 17:00N 29°47' W 092°10'2 4.0
2017-Nov-17 16:30N 29°47' W 092°12'2 3.0
2017-Nov-17 16:00N 29°48' W 092°13'1 2.9
2017-Nov-17 15:30N 29°48' W 092°15'3 5.0
2017-Nov-17 15:00N 29°49' W 092°18'2 3.7
2017-Nov-17 14:30N 29°50' W 092°19'40 4.6
2017-Nov-17 05:47N 29°56' W 093°05'1 4.6
2017-Nov-17 05:29N 29°56' W 093°06'2 4.7
2017-Nov-17 05:00N 29°56' W 093°09'2 4.4
2017-Nov-17 04:30N 29°58' W 093°11'2 4.5
2017-Nov-17 04:00N 29°59' W 093°13'2 3.3
2017-Nov-17 03:30N 30°01' W 093°14'2 3.8
2017-Nov-17 03:00N 30°02' W 093°15'2 4.2
2017-Nov-17 02:30N 30°04' W 093°16'1 1.4
2017-Nov-17 02:00N 30°04' W 093°17'1 2.6
2017-Nov-17 01:30N 30°05' W 093°18'1 1.5
2017-Nov-17 01:00N 30°06' W 093°18'1 1.3
2017-Nov-17 00:30N 30°06' W 093°19'2 4.2
2017-Nov-17 00:00N 30°04' W 093°20'2 3.2
2017-Nov-16 23:30N 30°04' W 093°22'2 3.7
2017-Nov-16 23:00N 30°04' W 093°24'3 5.2
2017-Nov-16 22:30N 30°04' W 093°27'3 5.2
2017-Nov-16 22:00N 30°04' W 093°30'  

Dump ship's entire track history